sensor_id;sensor_type;location;lat;lon;timestamp;pressure;altitude;pressure_sealevel;temperature;humidity
77299;BME280;66361;52.034;20.656;2023-04-25T00:01:15;98576.91;;;9.75;97.79
77299;BME280;66361;52.034;20.656;2023-04-25T00:05:18;98568.81;;;9.67;98.94
77299;BME280;66361;52.034;20.656;2023-04-25T00:09:22;98563.81;;;9.64;100.00
77299;BME280;66361;52.034;20.656;2023-04-25T00:13:26;98565.03;;;9.60;100.00
77299;BME280;66361;52.034;20.656;2023-04-25T00:17:30;98565.41;;;9.55;100.00
77299;BME280;66361;52.034;20.656;2023-04-25T00:21:33;98552.88;;;9.48;100.00
77299;BME280;66361;52.034;20.656;2023-04-25T00:25:36;98562.84;;;9.44;100.00
77299;BME280;66361;52.034;20.656;2023-04-25T00:29:41;98562.53;;;9.38;100.00
77299;BME280;66361;52.034;20.656;2023-04-25T00:33:44;98551.91;;;9.28;100.00
77299;BME280;66361;52.034;20.656;2023-04-25T00:37:47;98550.50;;;9.24;100.00
77299;BME280;66361;52.034;20.656;2023-04-25T00:41:50;98563.16;;;9.30;100.00
77299;BME280;66361;52.034;20.656;2023-04-25T00:45:59;98561.97;;;9.23;100.00
77299;BME280;66361;52.034;20.656;2023-04-25T00:50:03;98552.41;;;9.22;100.00
77299;BME280;66361;52.034;20.656;2023-04-25T00:54:06;98564.50;;;9.24;100.00
77299;BME280;66361;52.034;20.656;2023-04-25T00:58:09;98560.75;;;9.27;100.00
77299;BME280;66361;52.034;20.656;2023-04-25T01:02:14;98564.13;;;9.29;100.00
77299;BME280;66361;52.034;20.656;2023-04-25T01:06:18;98561.63;;;9.48;100.00
77299;BME280;66361;52.034;20.656;2023-04-25T01:10:21;98561.44;;;9.61;100.00
77299;BME280;66361;52.034;20.656;2023-04-25T01:14:25;98570.22;;;9.71;100.00
77299;BME280;66361;52.034;20.656;2023-04-25T01:18:29;98556.72;;;9.85;100.00
77299;BME280;66361;52.034;20.656;2023-04-25T01:22:36;98558.13;;;9.89;100.00
77299;BME280;66361;52.034;20.656;2023-04-25T01:26:41;98553.13;;;9.86;100.00
77299;BME280;66361;52.034;20.656;2023-04-25T01:30:46;98556.88;;;9.84;100.00
77299;BME280;66361;52.034;20.656;2023-04-25T01:34:49;98552.94;;;9.78;100.00
77299;BME280;66361;52.034;20.656;2023-04-25T01:38:54;98547.38;;;9.71;100.00
77299;BME280;66361;52.034;20.656;2023-04-25T01:42:57;98550.25;;;9.68;100.00
77299;BME280;66361;52.034;20.656;2023-04-25T01:47:00;98554.44;;;9.71;100.00
77299;BME280;66361;52.034;20.656;2023-04-25T01:51:03;98558.47;;;9.75;100.00
77299;BME280;66361;52.034;20.656;2023-04-25T01:55:09;98559.34;;;9.85;100.00
77299;BME280;66361;52.034;20.656;2023-04-25T01:59:12;98561.91;;;9.96;100.00
77299;BME280;66361;52.034;20.656;2023-04-25T02:03:15;98563.50;;;10.08;100.00
77299;BME280;66361;52.034;20.656;2023-04-25T02:07:21;98552.03;;;10.19;100.00
77299;BME280;66361;52.034;20.656;2023-04-25T02:11:25;98550.97;;;10.31;100.00
77299;BME280;66361;52.034;20.656;2023-04-25T02:15:28;98550.75;;;10.44;100.00
77299;BME280;66361;52.034;20.656;2023-04-25T02:19:31;98548.97;;;10.54;100.00
77299;BME280;66361;52.034;20.656;2023-04-25T02:23:34;98550.09;;;10.61;100.00
77299;BME280;66361;52.034;20.656;2023-04-25T02:27:39;98544.53;;;10.64;100.00
77299;BME280;66361;52.034;20.656;2023-04-25T02:31:42;98539.25;;;10.64;100.00
77299;BME280;66361;52.034;20.656;2023-04-25T02:35:45;98533.72;;;10.67;100.00
77299;BME280;66361;52.034;20.656;2023-04-25T02:39:49;98539.56;;;10.70;100.00
77299;BME280;66361;52.034;20.656;2023-04-25T02:43:53;98536.66;;;10.74;100.00
77299;BME280;66361;52.034;20.656;2023-04-25T02:47:55;98534.97;;;10.73;100.00
77299;BME280;66361;52.034;20.656;2023-04-25T02:51:59;98535.94;;;10.71;100.00
77299;BME280;66361;52.034;20.656;2023-04-25T02:56:01;98536.22;;;10.68;100.00
77299;BME280;66361;52.034;20.656;2023-04-25T03:00:07;98532.91;;;10.66;100.00
77299;BME280;66361;52.034;20.656;2023-04-25T03:04:13;98535.94;;;10.62;100.00
77299;BME280;66361;52.034;20.656;2023-04-25T03:08:16;98540.66;;;10.58;100.00
77299;BME280;66361;52.034;20.656;2023-04-25T03:12:19;98533.84;;;10.56;100.00
77299;BME280;66361;52.034;20.656;2023-04-25T03:16:24;98535.66;;;10.55;100.00
77299;BME280;66361;52.034;20.656;2023-04-25T03:20:27;98540.09;;;10.55;100.00
77299;BME280;66361;52.034;20.656;2023-04-25T03:24:30;98536.59;;;10.54;100.00
77299;BME280;66361;52.034;20.656;2023-04-25T03:28:33;98551.59;;;10.54;100.00
77299;BME280;66361;52.034;20.656;2023-04-25T03:32:37;98557.59;;;10.56;100.00
77299;BME280;66361;52.034;20.656;2023-04-25T03:36:41;98560.22;;;10.56;100.00
77299;BME280;66361;52.034;20.656;2023-04-25T03:40:44;98563.00;;;10.54;100.00
77299;BME280;66361;52.034;20.656;2023-04-25T03:44:47;98571.03;;;10.53;100.00
77299;BME280;66361;52.034;20.656;2023-04-25T03:48:51;98569.38;;;10.52;100.00
77299;BME280;66361;52.034;20.656;2023-04-25T03:52:54;98571.19;;;10.51;100.00
77299;BME280;66361;52.034;20.656;2023-04-25T03:56:56;98563.94;;;10.53;100.00
77299;BME280;66361;52.034;20.656;2023-04-25T04:00:59;98559.78;;;10.51;100.00
77299;BME280;66361;52.034;20.656;2023-04-25T04:05:06;98569.78;;;10.47;100.00
77299;BME280;66361;52.034;20.656;2023-04-25T04:09:09;98589.31;;;10.45;100.00
77299;BME280;66361;52.034;20.656;2023-04-25T04:13:13;98595.56;;;10.44;100.00
77299;BME280;66361;52.034;20.656;2023-04-25T04:17:16;98585.72;;;10.46;100.00
77299;BME280;66361;52.034;20.656;2023-04-25T04:21:21;98586.94;;;10.42;100.00
77299;BME280;66361;52.034;20.656;2023-04-25T04:25:24;98584.31;;;10.42;100.00
77299;BME280;66361;52.034;20.656;2023-04-25T04:29:27;98590.44;;;10.42;100.00
77299;BME280;66361;52.034;20.656;2023-04-25T04:33:30;98598.22;;;10.44;100.00
77299;BME280;66361;52.034;20.656;2023-04-25T04:37:36;98606.81;;;10.46;100.00
77299;BME280;66361;52.034;20.656;2023-04-25T04:41:39;98610.97;;;10.39;100.00
77299;BME280;66361;52.034;20.656;2023-04-25T04:45:42;98606.91;;;10.35;100.00
77299;BME280;66361;52.034;20.656;2023-04-25T04:49:46;98606.91;;;10.35;100.00
77299;BME280;66361;52.034;20.656;2023-04-25T04:53:50;98602.75;;;10.32;100.00
77299;BME280;66361;52.034;20.656;2023-04-25T04:57:53;98598.59;;;10.30;100.00
77299;BME280;66361;52.034;20.656;2023-04-25T05:01:56;98608.28;;;10.29;100.00
77299;BME280;66361;52.034;20.656;2023-04-25T05:05:59;98605.66;;;10.29;100.00
77299;BME280;66361;52.034;20.656;2023-04-25T05:10:08;98604.09;;;10.27;100.00
77299;BME280;66361;52.034;20.656;2023-04-25T05:14:10;98603.13;;;10.28;100.00
77299;BME280;66361;52.034;20.656;2023-04-25T05:18:16;98602.19;;;10.29;100.00
77299;BME280;66361;52.034;20.656;2023-04-25T05:22:19;98605.38;;;10.32;100.00
77299;BME280;66361;52.034;20.656;2023-04-25T05:26:23;98601.13;;;10.41;100.00
77299;BME280;66361;52.034;20.656;2023-04-25T05:30:27;98609.03;;;10.41;100.00
77299;BME280;66361;52.034;20.656;2023-04-25T05:34:30;98613.03;;;10.35;100.00
77299;BME280;66361;52.034;20.656;2023-04-25T05:38:33;98618.97;;;10.28;100.00
77299;BME280;66361;52.034;20.656;2023-04-25T05:42:37;98619.50;;;10.21;100.00
77299;BME280;66361;52.034;20.656;2023-04-25T05:46:40;98633.19;;;10.15;100.00
77299;BME280;66361;52.034;20.656;2023-04-25T05:50:43;98634.81;;;10.07;100.00
77299;BME280;66361;52.034;20.656;2023-04-25T05:54:46;98634.38;;;10.02;100.00
77299;BME280;66361;52.034;20.656;2023-04-25T05:58:50;98631.00;;;10.00;100.00
77299;BME280;66361;52.034;20.656;2023-04-25T06:02:53;98650.28;;;10.00;100.00
77299;BME280;66361;52.034;20.656;2023-04-25T06:06:57;98649.22;;;10.03;100.00
77299;BME280;66361;52.034;20.656;2023-04-25T06:11:01;98655.72;;;9.99;100.00
77299;BME280;66361;52.034;20.656;2023-04-25T06:15:06;98656.41;;;10.01;100.00
77299;BME280;66361;52.034;20.656;2023-04-25T06:19:27;98655.91;;;10.07;100.00
77299;BME280;66361;52.034;20.656;2023-04-25T06:23:30;98652.13;;;10.30;100.00
77299;BME280;66361;52.034;20.656;2023-04-25T06:27:33;98656.72;;;10.58;100.00
77299;BME280;66361;52.034;20.656;2023-04-25T06:31:37;98657.78;;;10.86;100.00
77299;BME280;66361;52.034;20.656;2023-04-25T06:35:41;98659.44;;;10.78;98.87
77299;BME280;66361;52.034;20.656;2023-04-25T06:39:44;98653.41;;;10.66;100.00
77299;BME280;66361;52.034;20.656;2023-04-25T06:43:48;98660.88;;;10.61;99.81
77299;BME280;66361;52.034;20.656;2023-04-25T06:47:53;98658.53;;;10.67;99.61
77299;BME280;66361;52.034;20.656;2023-04-25T06:51:59;98660.41;;;10.77;100.00
77299;BME280;66361;52.034;20.656;2023-04-25T06:56:02;98653.38;;;11.06;99.57
77299;BME280;66361;52.034;20.656;2023-04-25T07:00:07;98656.78;;;11.17;97.56
77299;BME280;66361;52.034;20.656;2023-04-25T07:04:12;98662.25;;;10.95;96.54
77299;BME280;66361;52.034;20.656;2023-04-25T07:08:17;98665.78;;;10.75;94.52
77299;BME280;66361;52.034;20.656;2023-04-25T07:12:20;98670.69;;;10.49;97.15
77299;BME280;66361;52.034;20.656;2023-04-25T07:16:23;98675.84;;;10.30;97.24
77299;BME280;66361;52.034;20.656;2023-04-25T07:20:28;98674.38;;;10.07;97.06
77299;BME280;66361;52.034;20.656;2023-04-25T07:24:32;98679.22;;;10.11;97.84
77299;BME280;66361;52.034;20.656;2023-04-25T07:28:35;98681.44;;;10.06;97.46
77299;BME280;66361;52.034;20.656;2023-04-25T07:32:38;98688.53;;;10.15;98.25
77299;BME280;66361;52.034;20.656;2023-04-25T07:36:43;98687.47;;;10.18;100.00
77299;BME280;66361;52.034;20.656;2023-04-25T07:40:48;98687.63;;;10.26;97.71
77299;BME280;66361;52.034;20.656;2023-04-25T07:44:51;98693.00;;;10.45;97.52
77299;BME280;66361;52.034;20.656;2023-04-25T07:48:55;98690.16;;;10.48;97.34
77299;BME280;66361;52.034;20.656;2023-04-25T07:52:59;98694.88;;;10.54;98.10
77299;BME280;66361;52.034;20.656;2023-04-25T07:57:02;98692.03;;;10.67;93.96
77299;BME280;66361;52.034;20.656;2023-04-25T08:01:09;98688.72;;;10.75;94.93
77299;BME280;66361;52.034;20.656;2023-04-25T08:05:12;98682.75;;;10.73;95.81
77299;BME280;66361;52.034;20.656;2023-04-25T08:09:28;98688.31;;;10.79;94.21
77299;BME280;66361;52.034;20.656;2023-04-25T08:13:35;98694.69;;;10.77;93.56
77299;BME280;66361;52.034;20.656;2023-04-25T08:17:40;98702.97;;;10.62;95.32
77299;BME280;66361;52.034;20.656;2023-04-25T08:21:49;98702.91;;;10.53;95.25
77299;BME280;66361;52.034;20.656;2023-04-25T08:25:54;98694.88;;;10.54;94.92
77299;BME280;66361;52.034;20.656;2023-04-25T08:29:57;98700.75;;;10.67;94.06
77299;BME280;66361;52.034;20.656;2023-04-25T08:34:01;98703.56;;;10.76;93.65
77299;BME280;66361;52.034;20.656;2023-04-25T08:38:04;98706.13;;;10.87;93.97
77299;BME280;66361;52.034;20.656;2023-04-25T08:42:08;98710.34;;;10.99;93.40
77299;BME280;66361;52.034;20.656;2023-04-25T08:46:11;98709.88;;;11.14;92.39
77299;BME280;66361;52.034;20.656;2023-04-25T08:50:22;98707.28;;;11.43;93.17
77299;BME280;66361;52.034;20.656;2023-04-25T08:54:28;98707.59;;;11.59;90.81
77299;BME280;66361;52.034;20.656;2023-04-25T08:58:39;98719.69;;;11.62;88.30
77299;BME280;66361;52.034;20.656;2023-04-25T09:02:42;98721.91;;;11.76;87.95
77299;BME280;66361;52.034;20.656;2023-04-25T09:06:46;98729.28;;;11.73;86.34
77299;BME280;66361;52.034;20.656;2023-04-25T09:10:52;98730.66;;;11.57;87.23
77299;BME280;66361;52.034;20.656;2023-04-25T09:15:07;98730.97;;;11.64;86.56
77299;BME280;66361;52.034;20.656;2023-04-25T09:19:21;98733.19;;;11.49;86.64
77299;BME280;66361;52.034;20.656;2023-04-25T09:23:40;98735.38;;;11.44;87.14
77299;BME280;66361;52.034;20.656;2023-04-25T09:27:51;98747.75;;;11.44;85.50
77299;BME280;66361;52.034;20.656;2023-04-25T09:32:11;98758.75;;;11.49;87.71
77299;BME280;66361;52.034;20.656;2023-04-25T09:36:26;98769.28;;;11.39;87.11
77299;BME280;66361;52.034;20.656;2023-04-25T09:40:30;98770.41;;;11.46;86.23
77299;BME280;66361;52.034;20.656;2023-04-25T09:44:33;98775.31;;;11.60;85.61
77299;BME280;66361;52.034;20.656;2023-04-25T09:48:40;98770.44;;;11.56;86.39
77299;BME280;66361;52.034;20.656;2023-04-25T09:53:03;98782.13;;;11.53;85.49
77299;BME280;66361;52.034;20.656;2023-04-25T09:57:11;98785.75;;;11.52;85.62
77299;BME280;66361;52.034;20.656;2023-04-25T10:01:16;98785.19;;;11.58;86.25
77299;BME280;66361;52.034;20.656;2023-04-25T10:05:21;98780.56;;;11.51;84.26
77299;BME280;66361;52.034;20.656;2023-04-25T10:09:26;98780.44;;;11.52;86.55
77299;BME280;66361;52.034;20.656;2023-04-25T10:13:34;98785.59;;;11.54;85.67
77299;BME280;66361;52.034;20.656;2023-04-25T10:17:38;98787.81;;;11.58;86.05
77299;BME280;66361;52.034;20.656;2023-04-25T10:21:50;98779.63;;;11.61;85.48
77299;BME280;66361;52.034;20.656;2023-04-25T10:25:55;98783.38;;;11.68;84.27
77299;BME280;66361;52.034;20.656;2023-04-25T10:30:03;98785.94;;;11.80;84.43
77299;BME280;66361;52.034;20.656;2023-04-25T10:34:08;98786.75;;;11.71;83.61
77299;BME280;66361;52.034;20.656;2023-04-25T10:38:15;98787.31;;;11.64;84.77
77299;BME280;66361;52.034;20.656;2023-04-25T10:42:17;98778.25;;;11.67;84.98
77299;BME280;66361;52.034;20.656;2023-04-25T10:46:23;98780.63;;;11.60;84.33
77299;BME280;66361;52.034;20.656;2023-04-25T10:50:37;98780.00;;;11.38;82.84
77299;BME280;66361;52.034;20.656;2023-04-25T10:54:46;98777.31;;;11.28;85.40
77299;BME280;66361;52.034;20.656;2023-04-25T10:58:50;98783.16;;;11.32;84.56
77299;BME280;66361;52.034;20.656;2023-04-25T11:02:58;98767.53;;;11.49;86.45
77299;BME280;66361;52.034;20.656;2023-04-25T11:07:10;98767.41;;;11.60;83.25
77299;BME280;66361;52.034;20.656;2023-04-25T11:11:17;98769.19;;;11.60;81.35
77299;BME280;66361;52.034;20.656;2023-04-25T11:15:21;98773.09;;;11.56;83.53
77299;BME280;66361;52.034;20.656;2023-04-25T11:19:27;98772.94;;;11.48;82.36
77299;BME280;66361;52.034;20.656;2023-04-25T11:23:30;98765.00;;;11.57;81.71
77299;BME280;66361;52.034;20.656;2023-04-25T11:27:50;98767.25;;;11.62;78.84
77299;BME280;66361;52.034;20.656;2023-04-25T11:31:54;98777.28;;;11.78;77.03
77299;BME280;66361;52.034;20.656;2023-04-25T11:36:01;98778.69;;;11.91;78.01
77299;BME280;66361;52.034;20.656;2023-04-25T11:40:05;98783.72;;;12.04;78.10
77299;BME280;66361;52.034;20.656;2023-04-25T11:44:12;98773.00;;;12.05;77.01
77299;BME280;66361;52.034;20.656;2023-04-25T11:48:17;98777.31;;;12.16;74.87
77299;BME280;66361;52.034;20.656;2023-04-25T11:52:38;98777.44;;;12.43;75.29
77299;BME280;66361;52.034;20.656;2023-04-25T11:56:41;98776.75;;;12.51;75.72
77299;BME280;66361;52.034;20.656;2023-04-25T12:00:48;98772.16;;;12.24;73.92
77299;BME280;66361;52.034;20.656;2023-04-25T12:04:51;98775.09;;;12.31;75.85
77299;BME280;66361;52.034;20.656;2023-04-25T12:09:01;98773.81;;;12.44;76.33
77299;BME280;66361;52.034;20.656;2023-04-25T12:13:18;98763.75;;;12.48;74.66
77299;BME280;66361;52.034;20.656;2023-04-25T12:17:24;98765.06;;;12.34;74.76
77299;BME280;66361;52.034;20.656;2023-04-25T12:21:28;98765.63;;;12.28;75.07
77299;BME280;66361;52.034;20.656;2023-04-25T12:25:39;98770.75;;;12.30;77.39
77299;BME280;66361;52.034;20.656;2023-04-25T12:29:51;98776.34;;;12.27;76.21
77299;BME280;66361;52.034;20.656;2023-04-25T12:33:56;98770.22;;;12.17;77.32
77299;BME280;66361;52.034;20.656;2023-04-25T12:37:59;98762.97;;;12.19;78.67
77299;BME280;66361;52.034;20.656;2023-04-25T12:42:03;98771.06;;;12.17;79.82
77299;BME280;66361;52.034;20.656;2023-04-25T12:46:09;98773.66;;;12.36;81.39
77299;BME280;66361;52.034;20.656;2023-04-25T12:50:13;98770.88;;;12.47;80.08
77299;BME280;66361;52.034;20.656;2023-04-25T12:54:17;98766.28;;;12.49;80.00
77299;BME280;66361;52.034;20.656;2023-04-25T12:58:22;98768.09;;;12.49;79.62
77299;BME280;66361;52.034;20.656;2023-04-25T13:02:26;98757.50;;;12.49;80.51
77299;BME280;66361;52.034;20.656;2023-04-25T13:06:33;98765.72;;;12.55;80.14
77299;BME280;66361;52.034;20.656;2023-04-25T13:10:37;98760.41;;;12.65;79.37
77299;BME280;66361;52.034;20.656;2023-04-25T13:14:43;98750.91;;;12.82;80.46
77299;BME280;66361;52.034;20.656;2023-04-25T13:18:48;98747.41;;;12.91;78.52
77299;BME280;66361;52.034;20.656;2023-04-25T13:22:54;98749.09;;;12.82;76.99
77299;BME280;66361;52.034;20.656;2023-04-25T13:27:00;98755.91;;;12.85;76.82
77299;BME280;66361;52.034;20.656;2023-04-25T13:31:03;98751.44;;;12.85;80.33
77299;BME280;66361;52.034;20.656;2023-04-25T13:35:07;98748.66;;;12.87;78.84
77299;BME280;66361;52.034;20.656;2023-04-25T13:39:12;98751.38;;;12.58;81.02
77299;BME280;66361;52.034;20.656;2023-04-25T13:43:16;98754.44;;;12.44;81.88
77299;BME280;66361;52.034;20.656;2023-04-25T13:47:25;98753.50;;;12.26;82.79
77299;BME280;66361;52.034;20.656;2023-04-25T13:51:28;98751.16;;;11.94;85.14
77299;BME280;66361;52.034;20.656;2023-04-25T13:55:35;98751.22;;;11.54;84.34
77299;BME280;66361;52.034;20.656;2023-04-25T13:59:38;98765.38;;;11.34;88.75
77299;BME280;66361;52.034;20.656;2023-04-25T14:03:43;98769.22;;;11.20;90.41
77299;BME280;66361;52.034;20.656;2023-04-25T14:07:46;98771.53;;;11.13;92.42
77299;BME280;66361;52.034;20.656;2023-04-25T14:11:51;98771.81;;;11.10;89.53
77299;BME280;66361;52.034;20.656;2023-04-25T14:15:55;98775.56;;;11.08;91.37
77299;BME280;66361;52.034;20.656;2023-04-25T14:19:59;98775.38;;;11.00;90.13
77299;BME280;66361;52.034;20.656;2023-04-25T14:24:06;98774.31;;;10.82;89.49
77299;BME280;66361;52.034;20.656;2023-04-25T14:28:10;98771.69;;;10.61;88.41
77299;BME280;66361;52.034;20.656;2023-04-25T14:32:16;98777.13;;;10.59;90.13
77299;BME280;66361;52.034;20.656;2023-04-25T14:36:20;98770.09;;;10.49;88.57
77299;BME280;66361;52.034;20.656;2023-04-25T14:40:23;98768.94;;;10.42;86.96
77299;BME280;66361;52.034;20.656;2023-04-25T14:44:27;98778.22;;;10.36;88.71
77299;BME280;66361;52.034;20.656;2023-04-25T14:48:30;98771.13;;;10.37;87.83
77299;BME280;66361;52.034;20.656;2023-04-25T14:52:34;98778.22;;;10.36;88.60
77299;BME280;66361;52.034;20.656;2023-04-25T14:56:37;98782.56;;;10.26;87.70
77299;BME280;66361;52.034;20.656;2023-04-25T15:00:42;98783.28;;;10.28;89.95
77299;BME280;66361;52.034;20.656;2023-04-25T15:04:46;98782.69;;;10.25;90.25
77299;BME280;66361;52.034;20.656;2023-04-25T15:08:48;98795.41;;;10.19;91.06
77299;BME280;66361;52.034;20.656;2023-04-25T15:12:52;98790.88;;;10.21;92.90
77299;BME280;66361;52.034;20.656;2023-04-25T15:16:57;98794.00;;;10.15;92.94
77299;BME280;66361;52.034;20.656;2023-04-25T15:21:01;98791.91;;;9.98;93.79
77299;BME280;66361;52.034;20.656;2023-04-25T15:25:04;98809.94;;;9.82;94.15
77299;BME280;66361;52.034;20.656;2023-04-25T15:29:08;98808.75;;;9.75;95.59
77299;BME280;66361;52.034;20.656;2023-04-25T15:33:12;98809.03;;;9.61;95.87
77299;BME280;66361;52.034;20.656;2023-04-25T15:37:17;98810.13;;;9.58;98.00
77299;BME280;66361;52.034;20.656;2023-04-25T15:41:22;98808.09;;;9.51;96.85
77299;BME280;66361;52.034;20.656;2023-04-25T15:45:28;98810.38;;;9.44;97.69
77299;BME280;66361;52.034;20.656;2023-04-25T15:49:35;98809.53;;;9.44;100.00
77299;BME280;66361;52.034;20.656;2023-04-25T15:53:38;98808.00;;;9.41;99.39
77299;BME280;66361;52.034;20.656;2023-04-25T15:57:41;98811.47;;;9.42;100.00
77299;BME280;66361;52.034;20.656;2023-04-25T16:01:44;98806.56;;;9.37;100.00
77299;BME280;66361;52.034;20.656;2023-04-25T16:05:49;98814.09;;;9.31;100.00
77299;BME280;66361;52.034;20.656;2023-04-25T16:09:53;98820.78;;;9.23;100.00
77299;BME280;66361;52.034;20.656;2023-04-25T16:13:56;98817.19;;;9.13;100.00
77299;BME280;66361;52.034;20.656;2023-04-25T16:17:59;98820.28;;;9.07;100.00
77299;BME280;66361;52.034;20.656;2023-04-25T16:22:03;98813.72;;;9.02;100.00
77299;BME280;66361;52.034;20.656;2023-04-25T16:26:07;98819.19;;;8.99;100.00
77299;BME280;66361;52.034;20.656;2023-04-25T16:30:10;98828.06;;;8.98;100.00
77299;BME280;66361;52.034;20.656;2023-04-25T16:34:14;98824.72;;;8.96;100.00
77299;BME280;66361;52.034;20.656;2023-04-25T16:38:18;98817.78;;;8.95;100.00
77299;BME280;66361;52.034;20.656;2023-04-25T16:42:22;98819.00;;;8.91;100.00
77299;BME280;66361;52.034;20.656;2023-04-25T16:46:28;98822.81;;;8.87;100.00
77299;BME280;66361;52.034;20.656;2023-04-25T16:50:32;98825.66;;;8.84;100.00
77299;BME280;66361;52.034;20.656;2023-04-25T16:54:38;98830.56;;;8.77;100.00
77299;BME280;66361;52.034;20.656;2023-04-25T16:58:41;98838.06;;;8.70;100.00
77299;BME280;66361;52.034;20.656;2023-04-25T17:02:44;98837.56;;;8.65;100.00
77299;BME280;66361;52.034;20.656;2023-04-25T17:06:48;98846.78;;;8.60;100.00
77299;BME280;66361;52.034;20.656;2023-04-25T17:10:54;98847.84;;;8.57;100.00
77299;BME280;66361;52.034;20.656;2023-04-25T17:14:58;98860.97;;;8.57;100.00
77299;BME280;66361;52.034;20.656;2023-04-25T17:19:05;98864.69;;;8.55;100.00
77299;BME280;66361;52.034;20.656;2023-04-25T17:23:07;98862.41;;;8.50;100.00
77299;BME280;66361;52.034;20.656;2023-04-25T17:27:14;98870.66;;;8.46;100.00
77299;BME280;66361;52.034;20.656;2023-04-25T17:31:17;98863.94;;;8.42;100.00
77299;BME280;66361;52.034;20.656;2023-04-25T17:35:21;98865.81;;;8.40;100.00
77299;BME280;66361;52.034;20.656;2023-04-25T17:39:23;98868.78;;;8.35;100.00
77299;BME280;66361;52.034;20.656;2023-04-25T17:43:29;98870.09;;;8.29;100.00
77299;BME280;66361;52.034;20.656;2023-04-25T17:47:33;98878.22;;;8.26;100.00
77299;BME280;66361;52.034;20.656;2023-04-25T17:51:39;98885.34;;;8.24;100.00
77299;BME280;66361;52.034;20.656;2023-04-25T17:55:42;98883.91;;;8.20;100.00
77299;BME280;66361;52.034;20.656;2023-04-25T17:59:46;98890.34;;;8.16;100.00
77299;BME280;66361;52.034;20.656;2023-04-25T18:03:52;98902.75;;;8.14;100.00
77299;BME280;66361;52.034;20.656;2023-04-25T18:07:55;98901.06;;;8.13;100.00
77299;BME280;66361;52.034;20.656;2023-04-25T18:11:58;98904.66;;;8.12;100.00
77299;BME280;66361;52.034;20.656;2023-04-25T18:16:03;98901.41;;;8.09;100.00
77299;BME280;66361;52.034;20.656;2023-04-25T18:20:09;98901.63;;;8.06;100.00
77299;BME280;66361;52.034;20.656;2023-04-25T18:24:14;98906.16;;;8.04;100.00
77299;BME280;66361;52.034;20.656;2023-04-25T18:28:18;98913.44;;;8.00;100.00
77299;BME280;66361;52.034;20.656;2023-04-25T18:32:24;98918.69;;;8.00;100.00
77299;BME280;66361;52.034;20.656;2023-04-25T18:36:28;98922.34;;;7.98;100.00
77299;BME280;66361;52.034;20.656;2023-04-25T18:40:31;98924.38;;;7.94;100.00
77299;BME280;66361;52.034;20.656;2023-04-25T18:44:38;98935.84;;;7.93;100.00
77299;BME280;66361;52.034;20.656;2023-04-25T18:48:44;98943.72;;;7.93;100.00
77299;BME280;66361;52.034;20.656;2023-04-25T18:52:47;98944.53;;;7.94;100.00
77299;BME280;66361;52.034;20.656;2023-04-25T18:56:51;98943.72;;;7.93;100.00
77299;BME280;66361;52.034;20.656;2023-04-25T19:00:55;98944.53;;;7.94;100.00
77299;BME280;66361;52.034;20.656;2023-04-25T19:05:00;98945.50;;;7.93;100.00
77299;BME280;66361;52.034;20.656;2023-04-25T19:09:03;98956.97;;;7.92;100.00
77299;BME280;66361;52.034;20.656;2023-04-25T19:13:10;98943.09;;;7.90;100.00
77299;BME280;66361;52.034;20.656;2023-04-25T19:17:13;98948.47;;;7.88;100.00
77299;BME280;66361;52.034;20.656;2023-04-25T19:21:18;98952.03;;;7.87;100.00
77299;BME280;66361;52.034;20.656;2023-04-25T19:25:23;98957.28;;;7.87;100.00
77299;BME280;66361;52.034;20.656;2023-04-25T19:29:29;98953.81;;;7.87;100.00
77299;BME280;66361;52.034;20.656;2023-04-25T19:33:33;98956.56;;;7.85;100.00
77299;BME280;66361;52.034;20.656;2023-04-25T19:37:40;98960.97;;;7.85;100.00
77299;BME280;66361;52.034;20.656;2023-04-25T19:41:47;98962.75;;;7.84;100.00
77299;BME280;66361;52.034;20.656;2023-04-25T19:45:55;98958.56;;;7.82;100.00
77299;BME280;66361;52.034;20.656;2023-04-25T19:49:59;98963.06;;;7.79;100.00
77299;BME280;66361;52.034;20.656;2023-04-25T19:54:03;98956.97;;;7.79;100.00
77299;BME280;66361;52.034;20.656;2023-04-25T19:58:08;98962.22;;;7.79;100.00
77299;BME280;66361;52.034;20.656;2023-04-25T20:02:15;98962.13;;;7.80;100.00
77299;BME280;66361;52.034;20.656;2023-04-25T20:06:21;98960.44;;;7.79;100.00
77299;BME280;66361;52.034;20.656;2023-04-25T20:10:26;98968.31;;;7.79;100.00
77299;BME280;66361;52.034;20.656;2023-04-25T20:14:28;98963.19;;;7.78;100.00
77299;BME280;66361;52.034;20.656;2023-04-25T20:18:33;98963.91;;;7.80;100.00
77299;BME280;66361;52.034;20.656;2023-04-25T20:22:36;98960.56;;;7.78;100.00
77299;BME280;66361;52.034;20.656;2023-04-25T20:26:42;98960.56;;;7.78;100.00
77299;BME280;66361;52.034;20.656;2023-04-25T20:30:45;98952.56;;;7.79;100.00
77299;BME280;66361;52.034;20.656;2023-04-25T20:34:50;98961.19;;;7.82;100.00
77299;BME280;66361;52.034;20.656;2023-04-25T20:38:54;98962.03;;;7.82;100.00
77299;BME280;66361;52.034;20.656;2023-04-25T20:42:59;98963.59;;;7.85;100.00
77299;BME280;66361;52.034;20.656;2023-04-25T20:47:05;98963.47;;;7.86;100.00
77299;BME280;66361;52.034;20.656;2023-04-25T20:51:10;98966.00;;;7.88;100.00
77299;BME280;66361;52.034;20.656;2023-04-25T20:55:15;98977.34;;;7.88;100.00
77299;BME280;66361;52.034;20.656;2023-04-25T20:59:22;98974.50;;;7.91;100.00
77299;BME280;66361;52.034;20.656;2023-04-25T21:03:26;98970.41;;;7.87;100.00
77299;BME280;66361;52.034;20.656;2023-04-25T21:07:30;98978.50;;;7.84;100.00
77299;BME280;66361;52.034;20.656;2023-04-25T21:11:32;98980.28;;;7.84;100.00
77299;BME280;66361;52.034;20.656;2023-04-25T21:15:38;98977.56;;;7.85;100.00